createdAt,value
2022-12-20T00:01:07.251Z,19.90
2022-12-20T00:03:35.389Z,19.93
2022-12-20T00:06:04.921Z,20.07
2022-12-20T00:08:34.837Z,20.03
2022-12-20T00:11:05.014Z,18.83
2022-12-20T00:13:33.892Z,20.50
2022-12-20T00:16:06.621Z,20.80
2022-12-20T00:18:34.717Z,20.10
2022-12-20T00:21:05.235Z,20.33
2022-12-20T00:23:33.707Z,20.57
2022-12-20T00:26:03.256Z,20.57
2022-12-20T00:28:31.719Z,20.17
2022-12-20T00:31:00.117Z,19.60
2022-12-20T00:33:28.573Z,20.03
2022-12-20T00:35:57.107Z,20.33
2022-12-20T00:38:26.919Z,20.97
2022-12-20T00:41:02.169Z,21.50
2022-12-20T00:43:31.872Z,21.27
2022-12-20T00:46:00.425Z,22.10
2022-12-20T00:48:29.900Z,21.57
2022-12-20T00:51:00.251Z,20.10
2022-12-20T00:53:30.585Z,20.87
2022-12-20T00:55:59.463Z,21.20
2022-12-20T00:58:27.475Z,20.73
2022-12-20T01:00:57.232Z,21.07
2022-12-20T01:03:25.880Z,20.37
2022-12-20T01:05:54.679Z,19.10
2022-12-20T01:08:25.299Z,19.10
2022-12-20T01:11:01.483Z,20.63
2022-12-20T01:13:29.906Z,19.67
2022-12-20T01:15:57.977Z,22.53
2022-12-20T01:18:26.170Z,21.90
2022-12-20T01:21:02.608Z,18.20
2022-12-20T01:23:31.008Z,20.33
2022-12-20T01:26:01.526Z,20.33
2022-12-20T01:28:30.430Z,20.00
2022-12-20T01:30:58.470Z,19.27
2022-12-20T01:33:26.507Z,20.13
2022-12-20T01:35:58.969Z,20.20
2022-12-20T01:38:27.872Z,19.77
2022-12-20T01:40:56.805Z,19.73
2022-12-20T01:43:27.249Z,20.10
2022-12-20T01:45:55.210Z,19.20
2022-12-20T01:48:26.582Z,19.80
2022-12-20T01:50:54.844Z,19.67
2022-12-20T01:53:25.419Z,20.90
2022-12-20T01:55:54.777Z,19.13
2022-12-20T01:58:23.939Z,20.37
2022-12-20T02:00:53.324Z,18.87
2022-12-20T02:03:21.396Z,21.07
2022-12-20T02:05:49.424Z,19.43
2022-12-20T02:08:20.406Z,17.63
2022-12-20T02:11:01.052Z,19.10
2022-12-20T02:13:42.306Z,19.97
2022-12-20T02:16:15.833Z,20.23
2022-12-20T02:18:49.467Z,17.70
2022-12-20T02:21:30.715Z,20.17
2022-12-20T02:24:28.718Z,18.63
2022-12-20T02:27:18.500Z,18.40
2022-12-20T02:30:03.578Z,19.37
2022-12-20T02:32:38.017Z,19.13
2022-12-20T02:35:07.983Z,19.57
2022-12-20T02:37:36.270Z,19.47
2022-12-20T02:40:06.951Z,20.10
2022-12-20T02:42:35.614Z,18.67
2022-12-20T02:45:19.576Z,21.00
2022-12-20T02:47:51.725Z,20.30
2022-12-20T02:50:24.343Z,18.07
2022-12-20T02:52:54.029Z,19.40
2022-12-20T02:55:32.761Z,19.17
2022-12-20T02:58:07.475Z,19.17
2022-12-20T03:00:41.987Z,18.87
2022-12-20T03:03:23.799Z,18.93
2022-12-20T03:05:54.377Z,19.07
2022-12-20T03:08:24.427Z,18.80
2022-12-20T03:10:53.761Z,19.57
2022-12-20T03:13:22.630Z,19.53
2022-12-20T03:16:00.646Z,19.53
2022-12-20T03:18:28.709Z,18.03
2022-12-20T03:20:56.646Z,19.97
2022-12-20T03:23:24.733Z,21.30
2022-12-20T03:25:52.678Z,21.07
2022-12-20T03:28:31.915Z,21.47
2022-12-20T03:31:01.881Z,20.33
2022-12-20T03:33:32.635Z,20.83
2022-12-20T03:36:03.339Z,19.10
2022-12-20T03:38:32.198Z,18.70
2022-12-20T03:41:00.262Z,18.07
2022-12-20T03:43:28.314Z,17.57
2022-12-20T03:45:56.289Z,19.13
2022-12-20T03:48:25.873Z,18.50
2022-12-20T03:50:53.997Z,18.07
2022-12-20T03:53:21.976Z,18.93
2022-12-20T03:55:50.130Z,18.80
2022-12-20T03:58:18.257Z,17.37
2022-12-20T04:00:46.291Z,19.57
2022-12-20T04:03:35.091Z,18.20
2022-12-20T04:06:03.281Z,18.43
2022-12-20T04:08:31.588Z,19.17
2022-12-20T04:11:18.059Z,17.93
2022-12-20T04:13:57.139Z,18.40
2022-12-20T04:16:27.857Z,18.23
2022-12-20T04:18:58.742Z,17.97
2022-12-20T04:21:31.933Z,17.83
2022-12-20T04:24:01.106Z,18.27
2022-12-20T04:26:39.585Z,17.83
2022-12-20T04:29:07.704Z,17.80
2022-12-20T04:31:36.491Z,17.57
2022-12-20T04:34:06.075Z,16.93
2022-12-20T04:36:35.372Z,16.50
2022-12-20T04:39:06.709Z,16.87
2022-12-20T04:41:44.844Z,17.57
2022-12-20T04:44:14.841Z,17.47
2022-12-20T04:46:42.915Z,17.70
2022-12-20T04:49:16.561Z,16.13
2022-12-20T04:51:45.925Z,17.83
2022-12-20T04:54:16.048Z,17.90
2022-12-20T04:56:51.560Z,17.70
2022-12-20T04:59:23.050Z,16.53
2022-12-20T05:01:53.995Z,16.20
2022-12-20T05:04:40.066Z,15.87
2022-12-20T05:07:08.331Z,16.37
2022-12-20T05:09:38.695Z,17.03
2022-12-20T05:12:07.156Z,16.17
2022-12-20T05:14:35.570Z,16.90
2022-12-20T05:17:03.799Z,16.40
2022-12-20T05:19:32.917Z,17.53
2022-12-20T05:22:25.739Z,16.70
2022-12-20T05:25:28.938Z,15.80
2022-12-20T05:28:00.361Z,17.13
2022-12-20T05:30:31.678Z,16.10
2022-12-20T05:32:59.895Z,18.50
2022-12-20T05:35:28.365Z,18.60
2022-12-20T05:38:06.978Z,18.13
2022-12-20T05:40:36.841Z,16.87
2022-12-20T05:43:06.229Z,17.27
2022-12-20T05:45:46.338Z,17.10
2022-12-20T05:48:16.204Z,17.30
2022-12-20T05:50:46.077Z,18.20
2022-12-20T05:53:30.693Z,18.63
2022-12-20T05:56:02.491Z,17.87
2022-12-20T05:58:33.697Z,17.43
2022-12-20T06:01:03.688Z,17.77
2022-12-20T06:03:36.169Z,18.27
2022-12-20T06:06:14.033Z,18.83
2022-12-20T06:08:45.657Z,17.47
2022-12-20T06:11:32.866Z,17.43
2022-12-20T06:14:10.808Z,18.10
2022-12-20T06:16:45.153Z,19.03
2022-12-20T06:19:20.892Z,17.67
2022-12-20T06:21:50.658Z,19.07
2022-12-20T06:24:25.464Z,18.50
2022-12-20T06:26:54.383Z,18.07
2022-12-20T06:29:24.586Z,17.97
2022-12-20T06:31:57.319Z,17.90
2022-12-20T06:34:25.757Z,18.30
2022-12-20T06:36:54.078Z,17.90
2022-12-20T06:39:28.600Z,17.87
2022-12-20T06:42:15.904Z,17.23
2022-12-20T06:44:47.305Z,18.10
2022-12-20T06:47:16.538Z,18.00
2022-12-20T06:49:44.730Z,16.97
2022-12-20T06:52:23.453Z,18.80
2022-12-20T06:54:57.451Z,19.33
2022-12-20T06:57:25.850Z,18.77
2022-12-20T06:59:55.608Z,17.83
2022-12-20T07:02:27.264Z,19.23
2022-12-20T07:04:55.829Z,19.33
2022-12-20T07:07:24.290Z,18.23
2022-12-20T07:09:52.463Z,19.67
2022-12-20T07:12:21.989Z,19.47
2022-12-20T07:14:50.449Z,17.90
2022-12-20T07:17:18.655Z,19.63
2022-12-20T07:19:50.759Z,19.37
2022-12-20T07:22:19.563Z,20.87
2022-12-20T07:24:47.854Z,21.23
2022-12-20T07:27:15.920Z,21.23
2022-12-20T07:29:45.333Z,18.97
2022-12-20T07:32:14.436Z,19.47
2022-12-20T07:34:42.503Z,18.47
2022-12-20T07:37:11.837Z,21.63
2022-12-20T07:39:39.976Z,20.27
2022-12-20T07:42:08.291Z,20.67
2022-12-20T07:44:44.930Z,20.00
2022-12-20T07:47:12.900Z,19.33
2022-12-20T07:49:41.351Z,19.80
2022-12-20T07:52:12.169Z,19.43
2022-12-20T07:54:46.801Z,19.67
2022-12-20T07:57:20.653Z,20.07
2022-12-20T07:59:54.579Z,20.63
2022-12-20T08:02:28.071Z,21.33
2022-12-20T08:04:57.178Z,20.63
2022-12-20T08:07:25.673Z,19.47
2022-12-20T08:09:53.781Z,19.77
2022-12-20T08:12:23.508Z,18.53
2022-12-20T08:14:56.227Z,17.80
2022-12-20T08:17:24.351Z,20.57
2022-12-20T08:19:52.652Z,19.97
2022-12-20T08:22:20.692Z,19.40
2022-12-20T08:24:48.697Z,19.87
2022-12-20T08:27:16.626Z,20.17
2022-12-20T08:29:44.648Z,19.60
2022-12-20T08:32:14.261Z,20.47
2022-12-20T08:34:42.184Z,19.90
2022-12-20T08:37:14.718Z,20.23
2022-12-20T08:39:43.328Z,20.77
2022-12-20T08:42:11.841Z,20.33
2022-12-20T08:44:39.872Z,20.97
2022-12-20T08:47:07.911Z,20.90
2022-12-20T08:49:41.102Z,21.77
2022-12-20T08:52:12.110Z,20.67
2022-12-20T08:54:40.113Z,20.73
2022-12-20T08:57:08.164Z,19.33
2022-12-20T08:59:36.133Z,19.40
2022-12-20T09:02:04.252Z,19.33
2022-12-20T09:04:32.532Z,20.03
2022-12-20T09:07:02.003Z,19.47
2022-12-20T09:09:30.082Z,19.20
2022-12-20T09:11:58.010Z,18.43
2022-12-20T09:14:26.032Z,19.63
2022-12-20T09:16:54.076Z,18.73
2022-12-20T09:19:22.145Z,19.47
2022-12-20T09:21:50.077Z,19.63
2022-12-20T09:24:19.422Z,21.03
2022-12-20T09:26:50.322Z,18.73
2022-12-20T09:29:27.119Z,19.33
2022-12-20T09:31:57.681Z,18.17
2022-12-20T09:34:25.741Z,18.57
2022-12-20T09:36:53.909Z,17.20
2022-12-20T09:39:23.572Z,18.53
2022-12-20T09:41:51.568Z,18.70
2022-12-20T09:44:28.184Z,19.13
2022-12-20T09:47:02.387Z,16.73
2022-12-20T09:49:38.271Z,20.03
2022-12-20T09:52:25.555Z,17.70
2022-12-20T09:55:02.937Z,18.30
2022-12-20T09:57:41.007Z,17.40
2022-12-20T10:00:14.387Z,18.53
2022-12-20T10:03:11.743Z,19.30
2022-12-20T10:05:41.511Z,17.77
2022-12-20T10:08:17.938Z,19.30
2022-12-20T10:11:00.026Z,18.57
2022-12-20T10:13:49.220Z,18.00
2022-12-20T10:16:34.692Z,20.10
2022-12-20T10:19:17.408Z,22.10
2022-12-20T10:21:53.334Z,23.40
2022-12-20T10:24:27.349Z,24.97
2022-12-20T10:26:57.040Z,25.90
2022-12-20T10:29:24.986Z,23.23
2022-12-20T10:31:55.684Z,21.57
2022-12-20T10:34:24.670Z,20.40
2022-12-20T10:37:12.422Z,18.60
2022-12-20T10:39:45.289Z,18.33
2022-12-20T10:42:35.682Z,18.17
2022-12-20T10:45:05.021Z,19.27
2022-12-20T10:47:39.800Z,19.80
2022-12-20T10:50:20.155Z,17.60
2022-12-20T10:53:04.914Z,17.50
2022-12-20T10:55:38.920Z,18.40
2022-12-20T10:58:16.913Z,17.73
2022-12-20T11:00:45.858Z,19.00
2022-12-20T11:03:20.427Z,17.70
2022-12-20T11:05:57.228Z,18.23
2022-12-20T11:08:51.242Z,18.37
2022-12-20T11:11:18.737Z,18.13
2022-12-20T11:13:49.141Z,18.63
2022-12-20T11:16:26.763Z,18.63
2022-12-20T11:19:06.059Z,18.10
2022-12-20T11:21:43.915Z,18.90
2022-12-20T11:24:16.385Z,19.50
2022-12-20T11:27:01.690Z,20.17
2022-12-20T11:30:01.912Z,19.73
2022-12-20T11:32:48.324Z,21.10
2022-12-20T11:35:23.312Z,20.03
2022-12-20T11:38:09.253Z,18.80
2022-12-20T11:40:45.523Z,17.83
2022-12-20T11:44:01.059Z,18.70
2022-12-20T11:46:43.179Z,17.60
2022-12-20T11:49:26.272Z,18.27
2022-12-20T11:52:03.838Z,19.87
2022-12-20T11:54:38.707Z,18.57
2022-12-20T11:57:14.662Z,19.60
2022-12-20T11:59:48.800Z,17.60
2022-12-20T12:02:26.840Z,19.33
2022-12-20T12:04:59.821Z,18.00
2022-12-20T12:07:32.696Z,18.93
2022-12-20T12:10:03.500Z,18.77
2022-12-20T12:12:35.263Z,17.83
2022-12-20T12:15:12.745Z,18.10
2022-12-20T12:17:49.580Z,17.97
2022-12-20T12:20:24.661Z,18.10
2022-12-20T12:22:58.897Z,18.00
2022-12-20T12:25:27.122Z,17.53
2022-12-20T12:27:55.309Z,18.17
2022-12-20T12:30:24.016Z,17.63
2022-12-20T12:32:56.590Z,17.63
2022-12-20T12:35:50.140Z,17.77
2022-12-20T12:38:45.396Z,18.00
2022-12-20T12:41:35.023Z,17.77
2022-12-20T12:44:32.265Z,17.87
2022-12-20T12:47:03.716Z,18.67
2022-12-20T12:49:34.472Z,17.73
2022-12-20T12:52:05.972Z,19.50
2022-12-20T12:54:38.355Z,17.67
2022-12-20T12:57:12.812Z,19.70
2022-12-20T12:59:48.159Z,17.27
2022-12-20T13:02:36.589Z,17.07
2022-12-20T13:05:35.505Z,16.03
2022-12-20T13:08:04.646Z,19.23
2022-12-20T13:10:59.409Z,18.07
2022-12-20T13:13:28.542Z,18.23
2022-12-20T13:17:09.429Z,18.53
2022-12-20T13:19:32.206Z,18.37
2022-12-20T13:22:21.882Z,20.23
2022-12-20T13:24:56.982Z,19.07
2022-12-20T13:27:31.842Z,18.07
2022-12-20T13:30:23.209Z,19.37
2022-12-20T13:33:25.114Z,18.93
2022-12-20T13:35:59.179Z,19.17
2022-12-20T13:39:02.997Z,19.50
2022-12-20T13:41:46.206Z,19.20
2022-12-20T13:44:37.959Z,20.13
2022-12-20T13:47:31.679Z,19.87
2022-12-20T13:50:03.248Z,21.57
2022-12-20T13:52:33.084Z,22.20
2022-12-20T13:55:09.020Z,23.87
2022-12-20T13:57:44.749Z,22.60
2022-12-20T14:00:18.587Z,21.40
2022-12-20T14:02:47.558Z,21.83
2022-12-20T14:05:20.060Z,20.87
2022-12-20T14:07:53.188Z,20.73
2022-12-20T14:10:25.265Z,21.17
2022-12-20T14:12:55.479Z,21.63
2022-12-20T14:15:26.695Z,21.90
2022-12-20T14:17:55.254Z,21.37
2022-12-20T14:20:29.078Z,21.03
2022-12-20T14:23:05.095Z,21.80
2022-12-20T14:25:38.629Z,22.10
2022-12-20T14:28:24.793Z,20.67
2022-12-20T14:30:56.287Z,20.90
2022-12-20T14:33:30.876Z,21.60
2022-12-20T14:36:08.202Z,21.83
2022-12-20T14:38:36.498Z,22.87
2022-12-20T14:41:04.632Z,22.03
2022-12-20T14:43:37.834Z,22.67
2022-12-20T14:46:17.737Z,23.20
2022-12-20T14:48:46.407Z,20.67
2022-12-20T14:51:22.179Z,21.60
2022-12-20T14:53:51.613Z,22.23
2022-12-20T14:56:27.881Z,22.63
2022-12-20T14:59:08.016Z,23.60
2022-12-20T15:01:43.452Z,22.03
2022-12-20T15:04:24.843Z,23.00
2022-12-20T15:06:53.985Z,22.87
2022-12-20T15:09:22.692Z,24.77
2022-12-20T15:11:51.685Z,24.70
2022-12-20T15:14:35.042Z,26.90
2022-12-20T15:17:03.958Z,24.07
2022-12-20T15:19:36.221Z,24.33
2022-12-20T15:22:07.551Z,25.00
2022-12-20T15:24:35.578Z,23.90
2022-12-20T15:27:03.611Z,24.83
2022-12-20T15:29:33.053Z,24.57
2022-12-20T15:32:07.743Z,25.13
2022-12-20T15:34:38.118Z,24.47
2022-12-20T15:37:06.776Z,25.23
2022-12-20T15:39:35.247Z,22.30
2022-12-20T15:42:05.859Z,23.97
2022-12-20T15:44:36.094Z,24.90
2022-12-20T15:47:04.223Z,25.30
2022-12-20T15:49:33.441Z,24.27
2022-12-20T15:52:01.638Z,24.23
2022-12-20T15:54:32.723Z,24.37
2022-12-20T15:57:03.230Z,26.63
2022-12-20T16:02:23.776Z,23.50
2022-12-20T16:04:52.004Z,23.97
2022-12-20T16:07:20.415Z,22.50
2022-12-20T16:09:48.566Z,22.53
2022-12-20T16:12:19.135Z,23.37
2022-12-20T16:14:47.592Z,23.20
2022-12-20T16:17:16.638Z,23.07
2022-12-20T16:19:46.950Z,24.67
2022-12-20T16:22:17.058Z,24.43
2022-12-20T16:24:46.158Z,24.10
2022-12-20T16:27:14.702Z,22.93
2022-12-20T16:29:42.957Z,24.13
2022-12-20T16:32:15.746Z,23.90
2022-12-20T16:34:45.633Z,25.67
2022-12-20T16:37:14.133Z,24.67
2022-12-20T16:39:42.777Z,24.83
2022-12-20T16:42:14.777Z,24.97
2022-12-20T16:44:45.269Z,24.83
2022-12-20T16:47:14.632Z,24.00
2022-12-20T16:49:51.289Z,24.07
2022-12-20T16:52:23.260Z,24.83
2022-12-20T16:54:51.934Z,25.47
2022-12-20T16:57:21.185Z,26.97
2022-12-20T16:59:49.158Z,27.60
2022-12-20T17:02:24.710Z,28.00
2022-12-20T17:04:52.795Z,26.97
2022-12-20T17:07:22.563Z,25.50
2022-12-20T17:09:50.788Z,25.77
2022-12-20T17:12:20.802Z,24.90
2022-12-20T17:14:49.772Z,26.73
2022-12-20T17:17:18.086Z,26.97
2022-12-20T17:19:46.354Z,26.20
2022-12-20T17:22:24.561Z,25.10
2022-12-20T17:24:54.055Z,25.67
2022-12-20T17:27:22.266Z,24.33
2022-12-20T17:29:52.176Z,25.10
2022-12-20T17:32:22.393Z,26.27
2022-12-20T17:34:51.044Z,26.63
2022-12-20T17:37:19.206Z,27.43
2022-12-20T17:39:47.579Z,29.40
2022-12-20T17:42:17.395Z,28.97
2022-12-20T17:44:46.631Z,28.10
2022-12-20T17:47:16.947Z,28.67
2022-12-20T17:49:44.999Z,28.97
2022-12-20T17:52:15.505Z,36.13
2022-12-20T17:54:43.579Z,33.13
2022-12-20T17:57:16.475Z,30.07
2022-12-20T17:59:45.130Z,29.80
2022-12-20T18:02:22.413Z,30.90
2022-12-20T18:04:50.997Z,30.63
2022-12-20T18:07:19.715Z,28.60
2022-12-20T18:09:48.822Z,26.20
2022-12-20T18:12:18.955Z,26.87
2022-12-20T18:14:49.558Z,27.93
2022-12-20T18:17:17.700Z,26.03
2022-12-20T18:19:45.819Z,27.03
2022-12-20T18:22:15.102Z,26.33
2022-12-20T18:24:43.179Z,31.87
2022-12-20T18:27:11.253Z,33.57
2022-12-20T18:29:40.612Z,27.40
2022-12-20T18:32:08.610Z,29.07
2022-12-20T18:34:37.202Z,27.60
2022-12-20T18:37:05.697Z,27.10
2022-12-20T18:39:33.987Z,28.80
2022-12-20T18:42:01.991Z,33.30
2022-12-20T18:44:30.951Z,30.60
2022-12-20T18:47:00.342Z,29.27
2022-12-20T18:49:29.195Z,30.90
2022-12-20T18:52:00.831Z,31.37
2022-12-20T18:54:30.357Z,30.50
2022-12-20T18:56:58.480Z,28.27
2022-12-20T18:59:26.711Z,27.23
2022-12-20T19:01:54.794Z,26.63
2022-12-20T19:04:25.037Z,26.27
2022-12-20T19:06:53.283Z,24.27
2022-12-20T19:09:21.335Z,26.00
2022-12-20T19:11:56.283Z,26.10
2022-12-20T19:14:25.326Z,26.00
2022-12-20T19:17:00.700Z,25.17
2022-12-20T19:19:30.302Z,25.23
2022-12-20T19:21:58.834Z,25.90
2022-12-20T19:24:26.772Z,25.03
2022-12-20T19:26:54.731Z,24.80
2022-12-20T19:29:22.852Z,25.97
2022-12-20T19:31:50.847Z,26.23
2022-12-20T19:34:18.838Z,26.90
2022-12-20T19:36:48.417Z,25.73
2022-12-20T19:39:19.964Z,25.33
2022-12-20T19:42:15.479Z,26.60
2022-12-20T19:44:36.307Z,26.60
2022-12-20T19:47:04.356Z,25.27
2022-12-20T19:49:32.354Z,26.90
2022-12-20T19:52:01.639Z,26.87
2022-12-20T19:54:29.946Z,27.17
2022-12-20T19:56:58.551Z,25.57
2022-12-20T19:59:26.698Z,30.23
2022-12-20T20:01:54.707Z,37.17
2022-12-20T20:04:22.948Z,38.00
2022-12-20T20:06:50.888Z,32.13
2022-12-20T20:09:20.167Z,29.20
2022-12-20T20:11:48.086Z,27.83
2022-12-20T20:14:15.986Z,26.37
2022-12-20T20:16:44.058Z,25.63
2022-12-20T20:19:12.211Z,24.83
2022-12-20T20:21:40.172Z,23.53
2022-12-20T20:24:09.759Z,24.80
2022-12-20T20:26:39.077Z,26.07
2022-12-20T20:29:10.305Z,25.80
2022-12-20T20:31:38.841Z,25.63
2022-12-20T20:34:06.843Z,27.90
2022-12-20T20:36:34.809Z,28.23
2022-12-20T20:39:02.820Z,28.77
2022-12-20T20:41:31.743Z,32.57
2022-12-20T20:44:01.131Z,29.00
2022-12-20T20:46:29.216Z,29.47
2022-12-20T20:48:57.255Z,26.77
2022-12-20T20:51:25.237Z,25.97
2022-12-20T20:53:53.184Z,25.53
2022-12-20T20:56:21.131Z,24.13
2022-12-20T20:58:49.993Z,24.07
2022-12-20T21:01:19.653Z,24.57
2022-12-20T21:03:48.765Z,28.43
2022-12-20T21:09:05.490Z,25.97
2022-12-20T21:11:33.883Z,25.30
2022-12-20T21:14:01.946Z,24.23
2022-12-20T21:16:31.347Z,25.70
2022-12-20T21:19:00.443Z,25.90
2022-12-20T21:21:28.541Z,28.90
2022-12-20T21:23:56.924Z,27.57
2022-12-20T21:26:26.133Z,27.43
2022-12-20T21:28:57.958Z,27.47
2022-12-20T21:31:26.037Z,26.87
2022-12-20T21:33:56.557Z,25.87
2022-12-20T21:36:24.951Z,25.00
2022-12-20T21:38:54.550Z,26.10
2022-12-20T21:41:25.064Z,24.93
2022-12-20T21:43:56.211Z,25.97
2022-12-20T21:46:24.277Z,26.27
2022-12-20T21:48:52.330Z,25.50
2022-12-20T21:51:23.689Z,26.07
2022-12-20T21:53:53.478Z,26.70
2022-12-20T21:56:22.468Z,25.67
2022-12-20T21:58:51.828Z,26.03
2022-12-20T22:01:22.453Z,26.37
2022-12-20T22:03:51.687Z,24.43
2022-12-20T22:06:21.616Z,25.10
2022-12-20T22:08:49.845Z,24.27
2022-12-20T22:11:19.711Z,22.97
2022-12-20T22:13:47.955Z,22.87
2022-12-20T22:16:17.898Z,24.40
2022-12-20T22:18:49.582Z,23.30
2022-12-20T22:21:18.668Z,23.97
2022-12-20T22:23:48.416Z,24.37
2022-12-20T22:26:19.256Z,24.63
2022-12-20T22:28:49.156Z,24.80
2022-12-20T22:31:17.609Z,22.73
2022-12-20T22:33:45.983Z,22.77
2022-12-20T22:36:15.774Z,22.50
2022-12-20T22:38:44.724Z,23.33
2022-12-20T22:41:16.666Z,23.07
2022-12-20T22:43:45.717Z,22.33
2022-12-20T22:46:15.463Z,22.97
2022-12-20T22:48:43.960Z,22.57
2022-12-20T22:51:13.905Z,22.50
2022-12-20T22:53:42.635Z,23.47
2022-12-20T22:56:10.977Z,23.03
2022-12-20T22:58:41.281Z,25.63
2022-12-20T23:01:12.884Z,24.33
2022-12-20T23:03:42.003Z,23.67
2022-12-20T23:06:13.033Z,24.23
2022-12-20T23:08:41.754Z,23.77
2022-12-20T23:11:34.267Z,24.17
2022-12-20T23:14:21.460Z,23.63
2022-12-20T23:16:49.465Z,22.40
2022-12-20T23:19:17.433Z,23.40
2022-12-20T23:22:03.157Z,23.17
2022-12-20T23:24:31.078Z,22.53
2022-12-20T23:26:58.980Z,23.03
2022-12-20T23:29:29.857Z,24.13
2022-12-20T23:31:58.085Z,24.00
2022-12-20T23:34:26.131Z,24.73
2022-12-20T23:36:54.113Z,24.23
2022-12-20T23:39:22.034Z,23.97
2022-12-20T23:41:49.917Z,24.63
2022-12-20T23:44:17.797Z,26.70
2022-12-20T23:46:47.071Z,27.13
2022-12-20T23:49:15.125Z,26.90
2022-12-20T23:51:43.277Z,27.57
2022-12-20T23:54:12.259Z,27.50
2022-12-20T23:56:40.156Z,26.07
2022-12-20T23:59:08.252Z,25.87
